createdAt,value
2023-04-22T00:00:33.963Z,37.1
2023-04-22T00:06:28.098Z,37.1
2023-04-22T00:12:19.515Z,37
2023-04-22T00:18:12.024Z,36.9
2023-04-22T00:24:04.103Z,36.9
2023-04-22T00:29:55.846Z,36.8
2023-04-22T00:35:48.215Z,36.8
2023-04-22T00:41:24.036Z,36.7
2023-04-22T00:47:16.360Z,36.6
2023-04-22T00:53:08.295Z,36.6
2023-04-22T00:58:59.732Z,36.5
2023-04-22T01:04:22.855Z,36.6
2023-04-22T01:10:14.830Z,37.1
2023-04-22T01:15:53.842Z,37.7
2023-04-22T01:21:46.298Z,38.1
2023-04-22T01:27:37.565Z,38.3
2023-04-22T01:33:30.010Z,38.4
2023-04-22T01:39:21.740Z,38.6
2023-04-22T01:45:13.053Z,38.7
2023-04-22T01:51:05.326Z,38.9
2023-04-22T01:56:41.746Z,38.9
2023-04-22T02:02:17.906Z,39
2023-04-22T02:08:10.820Z,39.1
2023-04-22T02:14:02.793Z,39.3
2023-04-22T02:19:54.815Z,39.3
2023-04-22T02:25:46.572Z,39.3
2023-04-22T02:31:37.442Z,39.3
2023-04-22T02:37:29.430Z,39.4
2023-04-22T02:43:20.950Z,39.4
2023-04-22T02:49:12.350Z,39.3
2023-04-22T02:54:48.685Z,39.3
2023-04-22T03:00:40.635Z,39.3
2023-04-22T03:06:37.001Z,39.3
2023-04-22T03:12:28.802Z,39.3
2023-04-22T03:18:21.568Z,39.3
2023-04-22T03:24:13.276Z,39.2
2023-04-22T03:30:04.565Z,39.1
2023-04-22T03:35:59.205Z,39.1
2023-04-22T03:41:51.717Z,39
2023-04-22T03:47:46.070Z,38.9
2023-04-22T03:53:38.073Z,38.9
2023-04-22T03:59:30.038Z,38.9
2023-04-22T04:05:11.498Z,38.8
2023-04-22T04:11:04.070Z,38.8
2023-04-22T04:16:55.871Z,38.7
2023-04-22T04:22:49.981Z,38.6
2023-04-22T04:28:41.864Z,38.6
2023-04-22T04:34:18.739Z,38.6
2023-04-22T04:40:11.072Z,38.5
2023-04-22T04:45:48.282Z,38.4
2023-04-22T04:51:40.322Z,38.4
2023-04-22T04:57:31.695Z,38.3
2023-04-22T05:03:24.581Z,38.3
2023-04-22T05:09:17.044Z,38.3
2023-04-22T05:15:08.691Z,38.2
2023-04-22T05:21:00.663Z,38.1
2023-04-22T05:26:51.762Z,38.1
2023-04-22T05:32:28.707Z,38
2023-04-22T05:38:20.697Z,38
2023-04-22T05:44:14.967Z,37.9
2023-04-22T05:50:06.835Z,37.9
2023-04-22T05:55:58.233Z,37.8
2023-04-22T06:01:50.305Z,37.8
2023-04-22T06:07:45.798Z,37.7
2023-04-22T06:13:28.132Z,37.6
2023-04-22T06:19:19.724Z,37.6
2023-04-22T06:25:13.571Z,53.4
2023-04-22T06:30:49.816Z,51.4
2023-04-22T06:36:41.853Z,48.8
2023-04-22T06:42:33.491Z,47.1
2023-04-22T06:48:24.813Z,54.8
2023-04-22T06:54:19.011Z,55.9
2023-04-22T07:00:11.456Z,56.6
2023-04-22T07:05:49.262Z,57.1
2023-04-22T07:17:17.452Z,58.3
2023-04-22T07:23:09.646Z,58.9
2023-04-22T07:29:01.302Z,59.3
2023-04-22T07:34:37.656Z,59.8
2023-04-22T07:40:29.477Z,60.2
2023-04-22T07:46:20.946Z,60.6
2023-04-22T07:52:15.593Z,60.9
2023-04-22T07:57:52.329Z,61.2
2023-04-22T08:03:46.389Z,57.9
2023-04-22T08:09:55.996Z,44.9
2023-04-22T08:15:47.852Z,45.8
2023-04-22T08:21:39.628Z,47.6
2023-04-22T08:27:30.856Z,49.9
2023-04-22T08:39:06.332Z,53.8
2023-04-22T08:45:03.152Z,55.5
2023-04-22T08:50:57.461Z,57.1
2023-04-22T09:02:26.009Z,59.8
2023-04-22T09:08:03.264Z,60.9
2023-04-22T09:13:56.661Z,61.6
2023-04-22T09:19:48.610Z,62
2023-04-22T09:25:40.030Z,63
2023-04-22T09:31:32.097Z,63.8
2023-04-22T09:37:25.105Z,64.4
2023-04-22T09:43:24.793Z,65.2
2023-04-22T09:49:17.029Z,64.1
2023-04-22T09:55:08.243Z,63.2
2023-04-22T10:00:58.959Z,62.2
2023-04-22T10:06:51.019Z,62
2023-04-22T10:12:51.780Z,64.1
2023-04-22T10:18:43.735Z,65.1
2023-04-22T10:24:19.776Z,65.6
2023-04-22T10:30:11.071Z,66.3
2023-04-22T10:35:50.684Z,66.6
2023-04-22T10:41:44.777Z,67.3
2023-04-22T10:47:37.067Z,67.8
2023-04-22T10:53:13.303Z,68.3
2023-04-22T10:59:09.428Z,68.8
2023-04-22T11:05:16.627Z,69.1
2023-04-22T11:10:36.808Z,69.4
2023-04-22T11:16:29.057Z,69.6
2023-04-22T11:22:24.018Z,69.6
2023-04-22T11:28:15.639Z,69.2
2023-04-22T11:34:08.841Z,69
2023-04-22T11:40:01.796Z,68.7
2023-04-22T11:46:06.150Z,68.1
2023-04-22T11:51:58.279Z,67.8
2023-04-22T11:57:49.621Z,67.6
2023-04-22T12:03:27.763Z,67.3
2023-04-22T12:09:20.421Z,67.1
2023-04-22T12:15:13.718Z,66.8
2023-04-22T12:21:05.958Z,66.4
2023-04-22T12:26:59.753Z,66.1
2023-04-22T12:32:51.204Z,65.7
2023-04-22T12:38:43.127Z,65.3
2023-04-22T12:44:35.571Z,65
2023-04-22T12:50:28.295Z,64.6
2023-04-22T12:56:20.071Z,64.2
2023-04-22T13:02:12.220Z,63.8
2023-04-22T13:08:16.468Z,63.3
2023-04-22T13:14:21.670Z,62.8
2023-04-22T13:20:16.360Z,62.3
2023-04-22T13:25:52.757Z,61.8
2023-04-22T13:31:48.116Z,61.4
2023-04-22T13:37:40.494Z,60.9
2023-04-22T13:43:32.353Z,60.4
2023-04-22T13:49:24.671Z,59.9
2023-04-22T13:55:17.444Z,59
2023-04-22T14:00:54.436Z,58.3
2023-04-22T14:06:31.955Z,57.4
2023-04-22T14:12:23.957Z,56.6
2023-04-22T14:18:02.371Z,56.1
2023-04-22T14:23:40.249Z,55.5
2023-04-22T14:29:31.751Z,54.9
2023-04-22T14:35:25.765Z,54.2
2023-04-22T14:41:19.095Z,53.1
2023-04-22T14:47:13.205Z,48.2
2023-04-22T14:53:04.696Z,49.6
2023-04-22T14:59:05.651Z,46.8
2023-04-22T15:04:58.551Z,44.4
2023-04-22T15:10:49.336Z,42.5
2023-04-22T15:16:40.934Z,40.9
2023-04-22T15:22:34.683Z,39.8
2023-04-22T15:28:26.622Z,38.8
2023-04-22T15:34:20.177Z,38
2023-04-22T15:40:12.148Z,37.3
2023-04-22T15:46:05.009Z,36.8
2023-04-22T15:51:41.018Z,36.3
2023-04-22T15:57:32.083Z,35.9
2023-04-22T16:03:47.314Z,35.4
2023-04-22T16:09:39.278Z,35.1
2023-04-22T16:15:30.921Z,34.8
2023-04-22T16:21:22.259Z,34.5
2023-04-22T16:27:13.561Z,34.3
2023-04-22T16:33:05.677Z,34.1
2023-04-22T16:38:41.027Z,33.8
2023-04-22T16:44:16.953Z,33.6
2023-04-22T16:49:53.115Z,33.4
2023-04-22T16:55:44.622Z,33.3
2023-04-22T17:01:37.122Z,33.1
2023-04-22T17:07:30.738Z,33
2023-04-22T17:13:22.759Z,32.9
2023-04-22T17:19:14.248Z,32.8
2023-04-22T17:25:05.663Z,32.6
2023-04-22T17:30:41.176Z,32.4
2023-04-22T17:36:33.954Z,32.3
2023-04-22T17:42:35.378Z,32.2
2023-04-22T17:48:29.836Z,32.1
2023-04-22T17:54:21.164Z,31.9
2023-04-22T18:00:12.808Z,31.9
2023-04-22T18:06:05.751Z,31.8
2023-04-22T18:11:56.637Z,31.7
2023-04-22T18:17:50.566Z,31.6
2023-04-22T18:23:54.162Z,31.5
2023-04-22T18:29:45.722Z,31.4
2023-04-22T18:35:22.379Z,31.3
2023-04-22T18:41:13.091Z,31.3
2023-04-22T18:46:49.367Z,31.2
2023-04-22T18:52:40.527Z,31.1
2023-04-22T18:58:16.677Z,31.1
2023-04-22T19:03:54.637Z,31
2023-04-22T19:09:47.079Z,30.9
2023-04-22T19:15:39.076Z,30.9
2023-04-22T19:21:15.568Z,30.8
2023-04-22T19:26:52.362Z,30.8
2023-04-22T19:32:29.390Z,30.8
2023-04-22T19:38:21.250Z,30.7
2023-04-22T19:43:59.203Z,30.6
2023-04-22T19:49:35.373Z,30.6
2023-04-22T19:55:26.490Z,30.6
2023-04-22T20:01:18.567Z,30.5
2023-04-22T20:07:12.021Z,30.4
2023-04-22T20:13:03.611Z,30.4
2023-04-22T20:18:55.678Z,30.4
2023-04-22T20:24:47.784Z,30.3
2023-04-22T20:30:39.770Z,30.3
2023-04-22T20:36:31.696Z,30.3
2023-04-22T20:42:22.434Z,30.3
2023-04-22T20:48:17.638Z,30.2
2023-04-22T20:54:17.676Z,30.2
2023-04-22T21:00:12.089Z,30.1
2023-04-22T21:06:05.778Z,30.1
2023-04-22T21:11:57.784Z,30.1
2023-04-22T21:17:50.506Z,30
2023-04-22T21:23:41.958Z,30
2023-04-22T21:29:34.167Z,29.9
2023-04-22T21:35:40.266Z,29.9
2023-04-22T21:41:31.259Z,29.9
2023-04-22T21:47:23.306Z,29.9
2023-04-22T21:52:58.785Z,29.9
2023-04-22T21:58:50.255Z,29.8
2023-04-22T22:04:30.269Z,29.8
2023-04-22T22:10:06.561Z,29.8
2023-04-22T22:16:11.331Z,29.8
2023-04-22T22:22:02.994Z,29.8
2023-04-22T22:27:54.868Z,29.7
2023-04-22T22:33:46.941Z,29.7
2023-04-22T22:39:38.875Z,29.6
2023-04-22T22:45:31.232Z,29.6
2023-04-22T22:51:23.863Z,29.6
2023-04-22T22:57:15.316Z,29.6
2023-04-22T23:03:08.098Z,29.6
2023-04-22T23:09:00.605Z,29.6
2023-04-22T23:14:37.000Z,29.5
2023-04-22T23:20:28.379Z,29.5
2023-04-22T23:26:19.564Z,29.5
2023-04-22T23:32:10.324Z,29.5
2023-04-22T23:38:02.272Z,29.4
2023-04-22T23:43:53.887Z,29.4
2023-04-22T23:49:46.675Z,29.4
2023-04-22T23:55:22.772Z,29.4
